Time;durP1;ratioP1;P1;durP2;ratioP2;P2;SDS_P1;SDS_P2;PMS_P1;PMS_P2;Temp;Humidity;BMP_temperature;BMP_pressure;BME280_temperature;BME280_humidity;BME280_pressure;Samples;Min_cycle;Max_cycle;Signal;HPM_P1;HPM_P2
2023/04/20 00:00:10;;;;;;;2.30;2.20;;;8.70;91.80;;;8.74;nan;100749.78;5030627;28;21173;-67
2023/04/20 00:02:38;;;;;;;3.50;2.50;;;8.60;92.40;;;8.71;nan;100749.97;5015451;28;21182;-68
2023/04/20 00:05:07;;;;;;;3.43;2.13;;;8.60;92.90;;;8.68;nan;100746.75;5025449;28;20628;-67
2023/04/20 00:07:37;;;;;;;2.20;2.10;;;8.60;93.50;;;8.63;nan;100741.81;5029515;28;20677;-66
2023/04/20 00:10:05;;;;;;;2.33;2.20;;;8.50;93.90;;;8.62;nan;100745.38;5027315;28;20636;-66
2023/04/20 00:12:32;;;;;;;2.63;2.43;;;8.50;94.40;;;8.60;nan;100737.63;5030705;28;20639;-67
2023/04/20 00:14:59;;;;;;;2.93;2.07;;;8.50;94.60;;;8.54;nan;100737.19;5032236;28;21163;-67
2023/04/20 00:17:26;;;;;;;2.50;2.30;;;8.50;94.90;;;8.48;nan;100733.22;5023364;28;20661;-67
2023/04/20 00:19:53;;;;;;;2.20;2.00;;;8.40;95.40;;;8.45;nan;100733.38;5018979;28;21223;-68
2023/04/20 00:22:20;;;;;;;2.50;2.17;;;8.40;95.70;;;8.43;nan;100724.03;5021198;28;21408;-67
2023/04/20 00:24:47;;;;;;;3.07;2.13;;;8.30;96.00;;;8.39;nan;100725.97;5030188;28;20672;-67
2023/04/20 00:27:14;;;;;;;2.40;2.20;;;8.30;96.40;;;8.34;nan;100714.19;5031421;28;20661;-67
2023/04/20 00:29:41;;;;;;;2.37;2.17;;;8.30;96.90;;;8.36;nan;100714.94;5028805;28;20688;-67
2023/04/20 00:32:08;;;;;;;2.43;2.23;;;8.30;96.90;;;8.37;nan;100709.63;5029020;28;21184;-67
2023/04/20 00:34:35;;;;;;;2.43;2.23;;;8.30;96.80;;;8.35;nan;100710.63;5019169;28;21192;-67
2023/04/20 00:37:02;;;;;;;4.00;2.07;;;8.30;96.80;;;8.38;nan;100707.88;5029316;28;20663;-69
2023/04/20 00:39:29;;;;;;;3.73;2.40;;;8.30;96.60;;;8.33;nan;100700.34;5030502;28;20650;-67
2023/04/20 00:42:06;;;;;;;2.93;2.50;;;8.30;96.80;;;8.34;nan;100693.38;5029360;28;20636;-68
2023/04/20 00:44:34;;;;;;;2.33;2.13;;;8.30;96.80;;;8.35;nan;100697.63;5029997;28;20912;-68
2023/04/20 00:47:01;;;;;;;4.33;2.40;;;8.30;96.80;;;8.29;nan;100690.22;5027062;28;20714;-68
2023/04/20 00:49:29;;;;;;;2.90;2.70;;;8.20;96.90;;;8.29;nan;100690.22;5029872;28;20629;-65
2023/04/20 00:52:00;;;;;;;2.90;2.70;;;8.20;96.90;;;8.24;nan;100687.88;5030187;28;20624;-69
2023/04/20 00:54:29;;;;;;;2.67;2.47;;;8.10;97.00;;;8.19;nan;100689.09;5030398;28;20624;-68
2023/04/20 00:56:57;;;;;;;4.30;2.83;;;8.10;97.20;;;8.13;nan;100679.91;5030700;28;20671;-65
2023/04/20 00:59:24;;;;;;;2.63;2.43;;;8.00;97.40;;;8.16;nan;100668.47;5022241;28;20655;-68
2023/04/20 01:01:51;;;;;;;2.47;2.37;;;8.10;97.50;;;8.15;nan;100672.03;5020753;28;21185;-67
2023/04/20 01:04:18;;;;;;;2.27;2.17;;;8.10;97.70;;;8.16;nan;100669.31;5018965;28;20725;-69
2023/04/20 01:06:45;;;;;;;2.70;2.50;;;8.10;97.80;;;8.16;nan;100664.13;5018060;28;20734;-67
2023/04/20 01:09:12;;;;;;;2.73;2.53;;;8.10;97.90;;;8.18;nan;100654.47;5024158;28;20644;-66
2023/04/20 01:11:39;;;;;;;2.53;2.40;;;8.10;97.90;;;8.12;nan;100657.44;5025965;28;20656;-65
2023/04/20 01:14:06;;;;;;;2.70;2.50;;;8.10;97.90;;;8.09;nan;100651.63;5029327;28;20702;-68
2023/04/20 01:16:35;;;;;;;2.90;2.40;;;8.00;98.20;;;8.01;nan;100648.66;5028483;28;20734;-68
2023/04/20 01:19:02;;;;;;;2.20;2.00;;;7.90;98.40;;;7.97;nan;100655.78;5023582;28;20635;-67
2023/04/20 01:21:30;;;;;;;2.40;2.20;;;7.80;98.70;;;7.98;nan;100647.06;5030323;28;20628;-67
2023/04/20 01:23:57;;;;;;;2.93;2.73;;;7.80;99.00;;;7.99;nan;100646.13;5030225;28;21237;-67
2023/04/20 01:26:24;;;;;;;3.87;2.47;;;7.90;99.10;;;8.02;nan;100647.72;5033889;28;20640;-67
2023/04/20 01:28:51;;;;;;;3.10;2.83;;;7.90;99.20;;;8.02;nan;100642.50;5032947;28;21019;-67
2023/04/20 01:31:18;;;;;;;2.60;2.40;;;7.90;99.10;;;8.01;nan;100644.25;5034938;28;21183;-67
2023/04/20 01:33:45;;;;;;;3.17;2.73;;;7.90;99.00;;;7.97;nan;100639.34;5030660;28;20633;-67
2023/04/20 01:36:13;;;;;;;3.60;2.57;;;7.90;99.30;;;7.97;nan;100639.34;5031931;28;20671;-67
2023/04/20 01:38:40;;;;;;;2.67;2.47;;;7.90;99.50;;;7.94;nan;100636.94;5021879;28;20643;-67
2023/04/20 01:41:09;;;;;;;3.03;2.73;;;7.90;99.60;;;7.84;nan;100632.31;5032786;28;20666;-69
2023/04/20 01:43:38;;;;;;;2.60;2.37;;;7.80;99.90;;;7.83;nan;100625.47;5032051;28;20668;-67
2023/04/20 01:46:06;;;;;;;3.83;2.60;;;7.70;99.90;;;7.76;nan;100624.16;5033081;28;20640;-67
2023/04/20 01:48:33;;;;;;;3.10;2.90;;;7.70;99.90;;;7.77;nan;100619.81;5032661;28;21059;-67
2023/04/20 01:51:00;;;;;;;4.53;2.80;;;7.70;99.90;;;7.74;nan;100617.38;5032173;28;20625;-67
2023/04/20 01:53:27;;;;;;;3.87;2.73;;;7.60;99.90;;;7.69;nan;100611.63;5032373;28;20636;-68
2023/04/20 01:55:54;;;;;;;2.93;2.43;;;7.60;99.90;;;7.66;nan;100610.06;5032397;28;20656;-67
2023/04/20 01:58:21;;;;;;;2.40;2.20;;;7.60;99.90;;;7.59;nan;100606.16;5033233;28;20643;-66
2023/04/20 02:00:48;;;;;;;4.13;2.70;;;7.50;99.90;;;7.55;nan;100604.66;5032924;28;20628;-67
2023/04/20 02:03:15;;;;;;;3.17;2.90;;;7.50;99.90;;;7.52;nan;100606.59;5023086;28;21061;-67
2023/04/20 02:08:15;;;;;;;2.40;2.30;;;7.40;99.90;;;7.50;nan;100601.50;4967779;28;20675;-66
2023/04/20 02:10:42;;;;;;;3.23;2.93;;;7.40;99.90;;;7.46;nan;100600.00;4974297;28;20643;-66
2023/04/20 02:13:10;;;;;;;2.90;2.70;;;7.40;99.90;;;7.47;nan;100599.09;4971197;28;20721;-65
2023/04/20 02:15:37;;;;;;;3.27;2.97;;;7.30;99.90;;;7.47;nan;100595.66;4973801;28;20638;-65
2023/04/20 02:18:04;;;;;;;2.73;2.47;;;7.40;99.90;;;7.47;nan;100588.72;4969742;28;20667;-68
2023/04/20 02:20:31;;;;;;;6.37;3.00;;;7.40;99.90;;;7.47;nan;100595.66;4972344;28;21152;-66
2023/04/20 02:22:58;;;;;;;2.50;2.30;;;7.50;99.90;;;7.42;nan;100588.16;4973868;28;21014;-67
2023/04/20 02:25:26;;;;;;;2.87;2.67;;;7.40;99.90;;;7.41;nan;100588.25;4972984;28;20737;-66
2023/04/20 02:27:53;;;;;;;2.40;2.20;;;7.40;99.90;;;7.38;nan;100588.41;4971472;28;20670;-66
2023/04/20 02:30:20;;;;;;;5.43;2.07;;;7.30;99.90;;;7.38;nan;100584.06;4971955;28;21042;-66
2023/04/20 02:32:47;;;;;;;2.37;2.17;;;7.30;99.90;;;7.42;nan;100584.72;4966134;28;20632;-66
2023/04/20 02:35:14;;;;;;;2.90;2.60;;;7.40;99.90;;;7.42;nan;100587.31;4970287;28;21022;-66
2023/04/20 02:37:43;;;;;;;3.57;3.00;;;7.40;99.90;;;7.44;nan;100585.44;4970790;28;20741;-67
2023/04/20 02:40:11;;;;;;;3.10;2.60;;;7.40;99.90;;;7.47;nan;100585.28;4972366;28;20646;-67
2023/04/20 02:42:38;;;;;;;3.23;2.80;;;7.40;99.90;;;7.46;nan;100589.63;4969317;28;20639;-66
2023/04/20 02:45:06;;;;;;;7.40;2.73;;;7.40;99.90;;;7.47;nan;100580.09;4972661;28;20671;-68
2023/04/20 02:47:33;;;;;;;3.50;3.20;;;7.40;99.90;;;7.45;nan;100590.53;4971714;28;21261;-65
2023/04/20 02:50:00;;;;;;;3.03;2.80;;;7.40;99.90;;;7.49;nan;100579.06;4973085;28;20631;-66
2023/04/20 02:52:27;;;;;;;3.80;3.10;;;7.40;99.90;;;7.50;nan;100575.53;4972538;28;20635;-67
2023/04/20 02:54:54;;;;;;;3.80;2.60;;;7.50;99.90;;;7.53;nan;100577.97;4970746;28;21252;-66
2023/04/20 02:57:21;;;;;;;3.40;3.10;;;7.50;99.90;;;7.54;nan;100573.59;4972781;28;20663;-66
2023/04/20 02:59:48;;;;;;;4.20;3.00;;;7.50;99.90;;;7.54;nan;100571.00;4972973;28;20677;-66
2023/04/20 03:02:15;;;;;;;3.07;2.77;;;7.50;99.90;;;7.54;nan;100566.63;4974026;28;21374;-65
2023/04/20 03:04:42;;;;;;;4.73;2.70;;;7.50;99.90;;;7.48;nan;100561.81;4972580;28;20667;-66
2023/04/20 03:07:10;;;;;;;3.20;3.00;;;7.40;99.90;;;7.47;nan;100562.75;4959742;28;20728;-67
2023/04/20 03:09:37;;;;;;;3.50;3.20;;;7.40;99.90;;;7.48;nan;100561.81;4971659;28;20689;-67
2023/04/20 03:12:05;;;;;;;4.63;3.33;;;7.50;99.90;;;7.47;nan;100560.16;4968331;28;20643;-67
2023/04/20 03:14:31;;;;;;;3.20;2.97;;;7.40;99.90;;;7.44;nan;100549.94;4963486;28;20646;-68
2023/04/20 03:16:58;;;;;;;4.10;3.30;;;7.40;99.90;;;7.41;nan;100560.50;4966923;28;20734;-66
2023/04/20 03:19:25;;;;;;;3.07;2.77;;;7.40;99.90;;;7.40;nan;100548.47;4977733;28;20640;-68
2023/04/20 03:21:52;;;;;;;3.90;2.83;;;7.30;99.90;;;7.37;nan;100545.25;4972084;28;21218;-67
2023/04/20 03:24:19;;;;;;;3.20;2.90;;;7.30;99.90;;;7.36;nan;100541.81;4971897;28;20659;-65
2023/04/20 03:26:46;;;;;;;3.30;3.10;;;7.30;99.90;;;7.40;nan;100542.44;4967923;28;20663;-67
2023/04/20 03:29:13;;;;;;;3.30;3.00;;;7.30;99.90;;;7.37;nan;100547.84;4964159;28;21046;-66
2023/04/20 03:31:40;;;;;;;3.63;2.90;;;7.30;99.90;;;7.28;nan;100545.78;4954447;28;20623;-67
2023/04/20 03:34:07;;;;;;;2.87;2.67;;;7.30;99.90;;;7.19;nan;100544.56;4965398;28;20627;-66
2023/04/20 03:36:35;;;;;;;4.10;3.23;;;7.20;99.90;;;7.17;nan;100541.22;4970936;28;20690;-67
2023/04/20 03:39:03;;;;;;;4.20;3.70;;;7.20;99.90;;;7.14;nan;100540.56;4966045;28;20628;-66
2023/04/20 03:41:30;;;;;;;3.27;2.97;;;7.10;99.90;;;7.10;nan;100539.06;4968558;28;20214;-66
2023/04/20 03:43:57;;;;;;;2.77;2.50;;;7.10;99.90;;;7.02;nan;100548.16;4971372;28;20671;-63
2023/04/20 03:46:24;;;;;;;3.60;2.80;;;7.00;99.90;;;6.98;nan;100544.03;4970987;28;20733;-66
2023/04/20 03:48:51;;;;;;;2.00;1.90;;;6.90;99.90;;;6.94;nan;100544.34;4971176;28;20649;-66
2023/04/20 03:51:18;;;;;;;2.88;2.67;;;6.90;99.90;;;6.92;nan;100543.59;5002560;28;20631;-67
2023/04/20 03:53:45;;;;;;;2.90;2.60;;;6.90;99.90;;;6.92;nan;100543.59;4971655;28;20214;-66
2023/04/20 03:56:12;;;;;;;3.10;2.83;;;6.90;99.90;;;6.88;nan;100542.06;4971113;28;20216;-67
2023/04/20 03:58:39;;;;;;;3.00;2.70;;;6.80;99.90;;;6.88;nan;100537.72;4966161;28;20636;-67
2023/04/20 04:01:07;;;;;;;2.97;2.60;;;6.80;99.90;;;6.89;nan;100539.41;4967335;28;20642;-68
2023/04/20 04:03:35;;;;;;;3.70;3.40;;;6.90;99.90;;;6.85;nan;100539.69;4971067;28;20987;-66
2023/04/20 04:06:03;;;;;;;4.70;3.37;;;6.80;99.90;;;6.85;nan;100537.94;4971729;28;20674;-66
2023/04/20 04:08:31;;;;;;;2.70;2.50;;;6.80;99.90;;;6.85;nan;100540.53;4970894;28;20638;-65
2023/04/20 04:10:59;;;;;;;3.33;2.97;;;6.80;99.90;;;6.87;nan;100530.06;4971048;28;20639;-64
2023/04/20 04:13:26;;;;;;;2.03;1.87;;;6.80;99.90;;;6.84;nan;100531.06;5002959;28;20619;-66
2023/04/20 04:15:53;;;;;;;2.70;2.50;;;6.80;99.90;;;6.79;nan;100520.09;4971988;28;20631;-66
2023/04/20 04:18:21;;;;;;;3.27;3.07;;;6.80;99.90;;;6.73;nan;100528.25;4971673;28;20704;-64
2023/04/20 04:20:48;;;;;;;3.05;2.50;;;6.70;99.90;;;6.65;nan;100527.00;4969767;28;21079;-67
2023/04/20 04:23:15;;;;;;;4.10;3.70;;;6.70;99.90;;;6.60;nan;100532.47;4971232;28;20657;-67
2023/04/20 04:25:42;;;;;;;4.40;3.90;;;6.60;99.90;;;6.63;nan;100523.69;4971516;28;20231;-67
2023/04/20 04:28:09;;;;;;;3.13;2.90;;;6.60;99.90;;;6.64;nan;100535.72;4972865;28;20647;-66
2023/04/20 04:30:36;;;;;;;3.50;3.30;;;6.70;99.90;;;6.65;nan;100527.84;4971203;28;20643;-66
2023/04/20 04:33:03;;;;;;;4.07;3.80;;;6.70;99.90;;;6.66;nan;100529.53;4971279;28;20200;-68
2023/04/20 04:35:32;;;;;;;5.32;3.92;;;6.70;99.90;;;6.60;nan;100535.06;4966812;28;20649;-65
2023/04/20 04:37:59;;;;;;;3.80;3.50;;;6.60;99.90;;;6.55;nan;100528.47;4969629;28;20228;-66
2023/04/20 04:40:26;;;;;;;3.72;3.30;;;6.60;99.90;;;6.55;nan;100528.47;4970885;28;20635;-67
2023/04/20 04:42:54;;;;;;;3.70;3.40;;;6.60;99.90;;;6.52;nan;100526.03;4986038;28;20734;-66
2023/04/20 04:45:24;;;;;;;4.65;3.42;;;6.50;99.90;;;6.56;nan;100522.38;4950481;28;20235;-65
2023/04/20 04:47:52;;;;;;;4.33;3.87;;;6.60;99.90;;;6.60;nan;100531.66;4966129;28;20234;-65
2023/04/20 04:50:20;;;;;;;9.00;3.90;;;6.60;99.90;;;6.69;nan;100523.31;4970988;28;20688;-66
2023/04/20 04:52:47;;;;;;;3.42;3.00;;;6.60;99.90;;;6.74;nan;100529.94;4969578;28;20833;-65
2023/04/20 04:55:14;;;;;;;4.60;3.27;;;6.70;99.90;;;6.75;nan;100525.59;4968580;28;20604;-65
2023/04/20 04:57:42;;;;;;;5.28;3.45;;;6.70;99.90;;;6.75;nan;100523.81;4977070;28;20713;-66
2023/04/20 05:00:11;;;;;;;3.88;3.50;;;6.70;99.90;;;6.74;nan;100522.16;4975195;28;20207;-65
2023/04/20 05:02:38;;;;;;;3.60;3.30;;;6.70;99.90;;;6.76;nan;100525.50;4971348;28;20279;-67
2023/04/20 05:05:07;;;;;;;5.22;3.25;;;6.70;99.90;;;6.75;nan;100528.19;4969674;28;20667;-65
2023/04/20 05:07:37;;;;;;;4.60;3.53;;;6.70;99.90;;;6.79;nan;100524.47;4975896;28;20243;-65
2023/04/20 05:10:06;;;;;;;3.80;3.50;;;6.70;99.90;;;6.87;nan;100530.88;4974748;28;20204;-65
2023/04/20 05:12:33;;;;;;;3.93;3.53;;;6.80;99.90;;;6.93;nan;100532.28;4976371;28;20678;-64
2023/04/20 05:15:00;;;;;;;3.70;3.40;;;6.90;99.90;;;6.92;nan;100530.63;5001179;28;20650;-66
2023/04/20 05:17:26;;;;;;;6.07;4.17;;;6.90;99.90;;;6.94;nan;100528.78;4977722;28;20669;-67
2023/04/20 05:19:54;;;;;;;3.75;2.80;;;6.90;99.90;;;7.00;nan;100531.84;5006779;28;21215;-65
2023/04/20 05:22:21;;;;;;;6.37;3.10;;;7.00;99.90;;;7.01;nan;100532.66;4975045;28;20211;-68
2023/04/20 05:24:48;;;;;;;4.30;3.80;;;7.00;99.90;;;6.99;nan;100535.34;4974823;28;20728;-65
2023/04/20 05:27:15;;;;;;;5.00;4.00;;;7.00;99.90;;;7.05;nan;100527.22;4976329;28;20785;-65
2023/04/20 05:29:42;;;;;;;6.70;3.93;;;7.00;99.90;;;7.09;nan;100532.22;4977103;28;20626;-66
2023/04/20 05:32:08;;;;;;;4.43;3.55;;;7.10;99.90;;;7.11;nan;100543.34;4977570;28;20635;-66
2023/04/20 05:34:36;;;;;;;3.93;3.63;;;7.10;99.90;;;7.12;nan;100532.88;4977164;28;20676;-66
2023/04/20 05:37:04;;;;;;;3.90;3.60;;;7.10;99.90;;;7.16;nan;100523.97;4977082;28;20666;-67
2023/04/20 05:39:31;;;;;;;5.40;4.10;;;7.10;99.90;;;7.20;nan;100533.25;4975150;28;20643;-65
2023/04/20 05:41:58;;;;;;;4.20;3.80;;;7.20;99.90;;;7.17;nan;100530.84;4977335;28;20627;-65
2023/04/20 05:44:25;;;;;;;4.07;3.60;;;7.20;99.90;;;7.19;nan;100529.00;4965308;28;20649;-66
2023/04/20 05:46:52;;;;;;;4.07;3.13;;;7.20;99.90;;;7.24;nan;100526.13;4977437;28;20220;-67
2023/04/20 05:49:19;;;;;;;5.07;3.97;;;7.20;99.90;;;7.23;nan;100522.69;4976858;28;20618;-64
2023/04/20 05:51:46;;;;;;;5.30;4.30;;;7.20;99.90;;;7.25;nan;100520.84;4968153;28;20631;-66
2023/04/20 05:54:13;;;;;;;6.43;4.30;;;7.20;99.90;;;7.24;nan;100523.53;4975970;28;20653;-68
2023/04/20 05:56:40;;;;;;;6.70;3.77;;;7.20;99.90;;;7.25;nan;100522.59;4976397;28;20659;-67
2023/04/20 05:59:08;;;;;;;4.47;3.63;;;7.20;99.90;;;7.24;nan;100523.53;4978381;28;20622;-65
2023/04/20 06:01:35;;;;;;;9.17;4.43;;;7.20;99.90;;;7.24;nan;100519.16;4975745;28;20770;-67
2023/04/20 06:04:02;;;;;;;5.60;4.60;;;7.20;99.90;;;7.23;nan;100521.84;4975895;28;20697;-66
2023/04/20 06:06:29;;;;;;;5.47;4.00;;;7.20;99.90;;;7.25;nan;100522.59;4972440;28;20682;-67
2023/04/20 06:08:57;;;;;;;6.33;4.23;;;7.20;99.90;;;7.29;nan;100530.09;4968038;28;20258;-65
2023/04/20 06:11:24;;;;;;;6.20;4.40;;;7.20;99.90;;;7.32;nan;100531.69;4973525;28;20686;-67
2023/04/20 06:13:51;;;;;;;6.60;4.20;;;7.30;99.90;;;7.40;nan;100526.88;4975003;28;20639;-66
2023/04/20 06:16:18;;;;;;;4.87;3.77;;;7.30;99.90;;;7.47;nan;100531.59;4988092;28;20993;-66
2023/04/20 06:18:45;;;;;;;4.87;4.10;;;7.50;99.90;;;7.52;nan;100533.91;4965895;28;20666;-66
2023/04/20 06:21:12;;;;;;;4.63;3.57;;;7.50;99.90;;;7.55;nan;100539.75;4968924;28;20634;-66
2023/04/20 06:23:39;;;;;;;3.80;3.40;;;7.50;99.90;;;7.61;nan;100530.75;4968319;28;20637;-66
2023/04/20 06:26:08;;;;;;;3.93;3.50;;;7.50;99.90;;;7.62;nan;100529.84;4971820;28;21054;-66
2023/04/20 06:28:36;;;;;;;5.93;3.57;;;7.60;99.90;;;7.72;nan;100536.97;4969363;28;20647;-66
2023/04/20 06:31:04;;;;;;;5.80;4.77;;;7.70;99.90;;;7.76;nan;100538.44;4965773;28;20979;-66
2023/04/20 06:33:32;;;;;;;4.03;3.53;;;7.80;99.90;;;7.80;nan;100533.88;4968759;28;21046;-69
2023/04/20 06:35:59;;;;;;;5.63;3.83;;;7.80;99.90;;;7.91;nan;100539.25;4970020;28;20653;-66
2023/04/20 06:38:26;;;;;;;5.20;4.30;;;7.90;99.90;;;8.12;nan;100539.66;4970462;28;20654;-66
2023/04/20 06:40:53;;;;;;;5.50;4.73;;;8.10;99.90;;;8.23;nan;100534.63;4969130;28;20635;-67
2023/04/20 06:43:20;;;;;;;5.13;4.50;;;8.20;99.90;;;8.31;nan;100542.78;4952735;28;20627;-67
2023/04/20 06:45:47;;;;;;;6.03;4.47;;;8.30;99.90;;;8.46;nan;100534.00;4966933;28;20699;-66
2023/04/20 06:48:14;;;;;;;4.07;3.73;;;8.40;99.90;;;8.69;nan;100535.13;4983600;28;20639;-67
2023/04/20 06:50:57;;;;;;;4.87;4.47;;;8.60;99.90;;;8.90;nan;100544.13;4967516;28;20635;-66
2023/04/20 06:53:24;;;;;;;4.00;3.63;;;8.90;99.90;;;9.14;nan;100539.84;4967085;28;20615;-66
2023/04/20 06:55:54;;;;;;;2.17;2.00;;;9.10;99.90;;;9.22;nan;100545.41;4969991;28;20643;-66
2023/04/20 06:58:21;;;;;;;2.40;2.20;;;9.20;99.90;;;9.30;nan;100551.75;4968850;28;21162;-65
2023/04/20 07:00:48;;;;;;;2.73;2.40;;;9.30;99.90;;;9.36;nan;100556.56;4967947;28;21218;-66
2023/04/20 07:03:17;;;;;;;5.23;4.73;;;9.40;99.90;;;9.43;nan;100536.13;4965418;28;20705;-66
2023/04/20 07:05:44;;;;;;;3.23;3.03;;;9.40;99.90;;;9.56;nan;100536.94;4963842;28;20663;-67
2023/04/20 07:08:14;;;;;;;4.80;4.30;;;9.50;99.90;;;9.85;nan;100530.53;4970824;28;20709;-66
2023/04/20 07:10:41;;;;;;;4.43;3.23;;;9.80;99.90;;;10.13;nan;100519.03;4971417;28;21019;-67
2023/04/20 07:13:08;;;;;;;3.43;2.87;;;10.10;99.90;;;10.29;nan;100535.22;4973128;28;21156;-65
2023/04/20 07:15:35;;;;;;;4.73;4.33;;;10.30;99.90;;;10.40;nan;100532.66;4972875;28;21203;-67
2023/04/20 07:18:02;;;;;;;4.80;4.40;;;10.40;99.90;;;10.59;nan;100526.94;4971497;28;20659;-66
2023/04/20 07:20:30;;;;;;;2.20;1.57;;;10.60;99.90;;;10.61;nan;100538.09;4981144;28;20639;-66
2023/04/20 07:22:57;;;;;;;4.93;4.30;;;10.70;99.90;;;10.81;nan;100529.63;4965511;28;20646;-66
2023/04/20 07:25:24;;;;;;;11.23;4.00;;;10.80;99.90;;;11.01;nan;100523.72;4971399;28;20647;-67
2023/04/20 07:27:51;;;;;;;5.17;4.67;;;11.00;99.90;;;11.92;nan;100524.53;4970054;28;20757;-68
2023/04/20 07:30:18;;;;;;;8.87;4.60;;;11.70;99.90;;;12.35;nan;100526.19;4973441;28;20622;-66
2023/04/20 07:32:45;;;;;;;4.47;4.07;;;12.20;99.90;;;12.57;nan;100532.28;4972097;28;20643;-68
2023/04/20 07:35:12;;;;;;;4.30;4.00;;;12.50;99.90;;;12.91;nan;100533.78;4970372;28;21046;-63
2023/04/20 07:37:40;;;;;;;5.17;4.30;;;12.90;99.90;;;13.18;nan;100531.53;4972332;28;20666;-65
2023/04/20 07:40:08;;;;;;;4.83;4.40;;;13.10;99.90;;;13.59;nan;100533.25;4971857;28;20639;-65
2023/04/20 07:42:36;;;;;;;6.70;4.03;;;13.50;99.90;;;13.35;nan;100538.81;4952770;28;20627;-66
2023/04/20 07:45:08;;;;;;;5.50;4.27;;;13.50;99.70;;;13.48;nan;100539.41;4952997;29;20601;-66
2023/04/20 07:47:36;;;;;;;5.30;4.20;;;13.60;99.60;;;13.73;nan;100531.13;4970183;28;21231;-66
2023/04/20 07:50:05;;;;;;;5.43;4.50;;;13.80;99.00;;;14.27;nan;100519.38;4966083;28;20621;-67
2023/04/20 07:52:32;;;;;;;10.03;4.57;;;14.30;97.60;;;14.98;nan;100529.47;4972833;28;20611;-68
2023/04/20 07:54:59;;;;;;;6.77;5.40;;;15.00;96.90;;;15.57;nan;100518.69;4970026;28;20643;-68
2023/04/20 07:57:28;;;;;;;4.80;4.43;;;15.70;95.00;;;16.08;nan;100521.59;4971012;28;20663;-67
2023/04/20 07:59:55;;;;;;;5.27;4.87;;;16.30;93.10;;;16.84;nan;100522.03;4959933;28;20643;-67
2023/04/20 08:02:22;;;;;;;4.30;3.90;;;17.10;90.80;;;17.83;nan;100532.03;4967749;28;20998;-67
2023/04/20 08:04:49;;;;;;;4.57;4.17;;;18.10;87.50;;;17.57;nan;100537.34;4966248;28;20639;-67
2023/04/20 08:07:16;;;;;;;5.37;4.87;;;18.10;83.70;;;17.26;nan;100532.69;4967193;28;20674;-68
2023/04/20 08:09:43;;;;;;;4.87;4.57;;;17.80;83.00;;;17.22;nan;100513.72;4993254;28;20635;-65
2023/04/20 08:12:10;;;;;;;4.70;4.30;;;17.60;81.70;;;17.66;nan;100517.13;4967799;28;21070;-67
2023/04/20 08:14:38;;;;;;;4.93;4.40;;;18.00;80.90;;;18.29;nan;100518.31;4964328;28;20631;-68
2023/04/20 08:17:05;;;;;;;5.67;5.00;;;18.60;79.20;;;18.27;nan;100515.00;4964959;28;20668;-67
2023/04/20 08:19:32;;;;;;;5.03;4.60;;;18.80;76.50;;;18.16;nan;100514.50;4969202;28;20650;-70
2023/04/20 08:21:59;;;;;;;6.60;5.00;;;18.60;75.30;;;17.43;nan;100510.72;4957925;28;20647;-67
2023/04/20 08:24:27;;;;;;;5.50;4.53;;;18.00;76.00;;;16.14;nan;100505.22;4967750;28;20635;-67
2023/04/20 08:26:54;;;;;;;6.50;4.73;;;16.80;78.70;;;16.39;nan;100501.03;4965653;28;21281;-67
2023/04/20 08:29:21;;;;;;;5.13;4.73;;;16.60;82.10;;;17.46;nan;100508.56;4963423;28;20643;-66
2023/04/20 08:31:48;;;;;;;4.40;4.10;;;17.70;79.60;;;18.29;nan;100502.44;4966241;28;21163;-68
2023/04/20 08:34:17;;;;;;;5.97;4.73;;;18.50;76.80;;;18.67;nan;100494.94;4964339;28;20627;-69
2023/04/20 08:36:45;;;;;;;4.53;4.20;;;19.10;75.30;;;18.55;nan;100489.97;4968146;28;20717;-66
2023/04/20 08:39:18;;;;;;;5.93;4.60;;;19.00;73.10;;;18.41;nan;100493.25;4969788;28;20623;-67
2023/04/20 08:41:46;;;;;;;6.37;4.30;;;18.90;74.50;;;18.48;nan;100478.41;4970867;28;20604;-66
2023/04/20 08:44:14;;;;;;;5.33;4.40;;;18.80;74.60;;;18.94;nan;100490.13;4978805;28;20642;-67
2023/04/20 08:46:46;;;;;;;6.00;4.70;;;19.20;73.60;;;20.18;nan;100496.47;4962592;28;21037;-68
2023/04/20 08:49:15;;;;;;;9.63;4.53;;;20.30;71.80;;;21.04;nan;100497.03;4965055;28;21002;-69
2023/04/20 08:51:44;;;;;;;5.23;4.73;;;21.40;68.40;;;21.66;nan;100495.63;4997715;28;20631;-67
2023/04/20 08:54:12;;;;;;;4.97;4.50;;;22.10;65.10;;;20.87;nan;100483.03;4968573;28;20642;-67
2023/04/20 08:56:42;;;;;;;8.90;5.27;;;21.60;64.70;;;20.63;nan;100477.97;4969295;28;21234;-67
2023/04/20 08:59:10;;;;;;;4.93;4.53;;;21.10;65.50;;;21.73;nan;100490.41;4969587;28;20693;-67
2023/04/20 09:01:40;;;;;;;4.60;4.27;;;22.00;64.50;;;22.72;nan;100478.03;4968729;28;20646;-66
2023/04/20 09:04:21;;;;;;;5.03;4.60;;;23.10;62.60;;;23.98;nan;100472.44;4969423;28;21083;-65
2023/04/20 09:06:52;;;;;;;5.37;4.87;;;24.50;60.00;;;24.99;nan;100486.34;4967667;28;20681;-67
2023/04/20 09:09:21;;;;;;;6.00;5.47;;;25.50;57.70;;;24.66;nan;100488.13;4963048;28;20624;-66
2023/04/20 09:12:03;;;;;;;5.20;4.70;;;25.50;55.70;;;23.90;nan;100476.91;4969663;28;20625;-65
2023/04/20 09:14:41;;;;;;;7.60;5.33;;;24.60;57.20;;;24.09;nan;100478.00;4966162;28;20638;-69
2023/04/20 09:17:12;;;;;;;4.87;3.90;;;24.90;56.10;;;22.70;nan;100482.72;4970043;28;20677;-68
2023/04/20 09:19:43;;;;;;;5.97;3.90;;;23.60;57.40;;;22.29;nan;100479.03;4967919;28;21242;-67
2023/04/20 09:22:11;;;;;;;5.43;4.93;;;22.90;58.80;;;22.91;nan;100464.03;4952183;28;20608;-66
2023/04/20 09:24:40;;;;;;;4.30;4.00;;;23.60;57.50;;;21.62;nan;100473.13;4968257;28;20641;-68
2023/04/20 09:27:15;;;;;;;7.33;4.23;;;22.70;57.20;;;20.35;nan;100467.09;5000866;28;21221;-66
2023/04/20 09:29:42;;;;;;;4.97;4.50;;;21.20;59.50;;;20.38;nan;100465.91;4961947;28;20636;-65
2023/04/20 09:32:23;;;;;;;4.03;3.73;;;21.00;60.40;;;21.07;nan;100462.97;4960553;28;20636;-66
2023/04/20 09:34:50;;;;;;;6.57;5.47;;;21.50;60.70;;;21.80;nan;100462.13;4963833;28;20623;-67
2023/04/20 09:37:17;;;;;;;5.00;4.60;;;22.10;60.40;;;23.64;nan;100460.00;4966133;28;21250;-66
2023/04/20 09:39:45;;;;;;;8.73;5.03;;;23.80;58.70;;;24.10;nan;100453.00;4963362;28;20635;-66
2023/04/20 09:42:14;;;;;;;6.33;4.93;;;24.60;57.20;;;23.34;nan;100448.78;4967497;28;20648;-65
2023/04/20 09:44:42;;;;;;;4.40;4.00;;;24.10;57.20;;;22.20;nan;100449.09;4995540;28;20686;-66
2023/04/20 09:47:20;;;;;;;8.40;5.07;;;22.90;58.20;;;20.04;nan;100451.19;4970250;28;21235;-70
2023/04/20 09:49:47;;;;;;;6.03;5.30;;;21.10;60.30;;;20.06;nan;100443.06;4956114;28;20624;-67
2023/04/20 09:52:20;;;;;;;6.87;5.40;;;20.40;62.40;;;20.28;nan;100433.50;4969691;28;20619;-66
2023/04/20 09:54:47;;;;;;;9.17;4.83;;;20.70;61.60;;;20.26;nan;100444.28;4973985;28;20615;-68
2023/04/20 09:57:14;;;;;;;5.97;4.87;;;20.70;61.50;;;20.64;nan;100432.72;4961481;28;20671;-66
2023/04/20 09:59:46;;;;;;;5.33;4.73;;;20.90;61.00;;;20.99;nan;100438.34;4972200;28;20639;-69
2023/04/20 10:02:13;;;;;;;6.63;5.57;;;21.20;60.90;;;20.66;nan;100440.47;4969605;28;20674;-70
2023/04/20 10:04:56;;;;;;;5.93;5.33;;;21.10;60.60;;;20.17;nan;100418.03;4988170;28;20642;-67
2023/04/20 10:07:26;;;;;;;6.20;5.00;;;20.50;61.90;;;20.36;nan;100412.28;4965133;28;20710;-66
2023/04/20 10:10:14;;;;;;;5.27;4.77;;;20.70;61.70;;;21.35;nan;100424.19;4964387;28;20697;-66
2023/04/20 10:12:58;;;;;;;6.47;5.33;;;21.50;61.00;;;22.31;nan;100424.69;4956393;28;20866;-68
2023/04/20 10:15:37;;;;;;;5.83;5.33;;;22.40;59.90;;;21.82;nan;100417.59;4953311;29;20957;-67
2023/04/20 10:18:25;;;;;;;7.13;5.60;;;22.10;59.50;;;20.85;nan;100408.13;4963328;28;20721;-66
2023/04/20 10:21:09;;;;;;;3.70;2.70;;;21.00;62.40;;;20.43;nan;100406.06;4974084;28;20627;-65
2023/04/20 10:23:50;;;;;;;6.50;5.30;;;20.60;63.20;;;19.68;nan;100391.84;4974836;28;20634;-67
2023/04/20 10:26:17;;;;;;;6.07;5.33;;;19.90;63.70;;;19.32;nan;100402.09;4972615;28;20678;-67
2023/04/20 10:28:45;;;;;;;5.17;4.23;;;19.40;64.80;;;18.57;nan;100399.97;4971753;28;20639;-66
2023/04/20 10:31:14;;;;;;;6.13;5.53;;;18.70;66.20;;;17.58;nan;100390.47;4972748;28;21061;-67
2023/04/20 10:33:56;;;;;;;2.90;2.33;;;17.70;68.20;;;16.63;nan;100392.44;4968864;28;20647;-65
2023/04/20 10:36:35;;;;;;;5.67;4.80;;;16.80;70.70;;;15.93;nan;100394.13;4973323;28;20675;-66
2023/04/20 10:39:16;;;;;;;6.40;4.93;;;16.10;72.60;;;15.45;nan;100389.22;4970832;28;20639;-66
2023/04/20 10:41:57;;;;;;;10.10;5.23;;;15.60;74.60;;;15.04;nan;100386.19;4973687;28;20634;-67